createdAt,value
2022-12-18T00:02:32.558Z,91.00
2022-12-18T00:12:40.206Z,91.01
2022-12-18T00:22:47.144Z,91.21
2022-12-18T00:32:54.338Z,91.35
2022-12-18T00:43:01.601Z,91.36
2022-12-18T00:53:08.942Z,91.10
2022-12-18T01:03:15.022Z,90.96
2022-12-18T01:13:22.845Z,91.12
2022-12-18T01:23:30.185Z,91.15
2022-12-18T01:33:37.553Z,91.14
2022-12-18T01:43:45.755Z,91.07
2022-12-18T01:53:53.442Z,91.01
2022-12-18T02:04:20.413Z,90.80
2022-12-18T02:14:40.231Z,90.97
2022-12-18T02:24:56.326Z,91.12
2022-12-18T02:35:07.028Z,91.00
2022-12-18T02:45:15.160Z,91.02
2022-12-18T02:55:22.722Z,91.03
2022-12-18T03:05:32.567Z,91.05
2022-12-18T03:15:40.633Z,91.04
2022-12-18T03:25:49.213Z,90.92
2022-12-18T03:35:57.461Z,90.80
2022-12-18T03:46:08.807Z,90.88
2022-12-18T03:56:18.750Z,90.86
2022-12-18T04:06:27.148Z,90.78
2022-12-18T04:16:34.206Z,90.73
2022-12-18T04:26:41.422Z,90.87
2022-12-18T04:36:47.893Z,90.67
2022-12-18T04:46:55.161Z,90.49
2022-12-18T04:57:03.164Z,90.33
2022-12-18T05:07:10.398Z,90.37
2022-12-18T05:17:17.932Z,90.42
2022-12-18T05:27:25.134Z,90.48
2022-12-18T05:37:32.237Z,90.36
2022-12-18T05:47:39.560Z,90.37
2022-12-18T05:57:45.646Z,90.15
2022-12-18T06:07:53.506Z,90.29
2022-12-18T06:18:02.475Z,90.20
2022-12-18T06:28:08.263Z,90.34
2022-12-18T06:38:15.290Z,90.44
2022-12-18T06:48:22.473Z,90.43
2022-12-18T06:58:29.817Z,90.18
2022-12-18T07:08:36.932Z,90.20
2022-12-18T07:18:44.743Z,90.46
2022-12-18T07:28:53.156Z,90.28
2022-12-18T07:39:00.197Z,90.14
2022-12-18T07:49:07.295Z,90.22
2022-12-18T07:59:14.615Z,89.95
2022-12-18T08:09:22.087Z,90.03
2022-12-18T08:19:29.319Z,90.10
2022-12-18T08:29:36.683Z,90.05
2022-12-18T08:39:44.457Z,89.97
2022-12-18T08:49:51.630Z,90.08
2022-12-18T08:59:58.673Z,89.83
2022-12-18T09:10:06.434Z,89.80
2022-12-18T09:20:14.339Z,89.96
2022-12-18T09:30:22.099Z,89.58
2022-12-18T09:40:34.886Z,89.21
2022-12-18T09:50:43.545Z,88.46
2022-12-18T10:00:53.534Z,88.74
2022-12-18T10:21:15.909Z,88.82
2022-12-18T10:31:25.829Z,88.84
2022-12-18T10:41:33.587Z,88.83
2022-12-18T10:51:41.348Z,88.38
2022-12-18T11:01:52.448Z,88.28
2022-12-18T11:12:00.393Z,88.19
2022-12-18T11:22:20.466Z,87.54
2022-12-18T11:32:28.721Z,87.53
2022-12-18T11:42:35.083Z,87.64
2022-12-18T11:52:43.984Z,87.61
2022-12-18T12:03:00.409Z,87.55
2022-12-18T12:13:10.563Z,87.43
2022-12-18T12:23:26.071Z,87.32
2022-12-18T12:33:36.382Z,87.11
2022-12-18T12:54:16.058Z,87.15
2022-12-18T13:04:21.890Z,87.26
2022-12-18T13:14:28.582Z,87.01
2022-12-18T13:24:36.189Z,86.96
2022-12-18T13:34:43.792Z,87.05
2022-12-18T13:44:51.663Z,86.90
2022-12-18T13:55:01.987Z,86.94
2022-12-18T14:05:24.808Z,86.60
2022-12-18T14:15:29.155Z,86.59
2022-12-18T14:25:36.346Z,86.58
2022-12-18T14:35:45.504Z,86.20
2022-12-18T14:45:53.347Z,86.00
2022-12-18T14:55:59.566Z,85.96
2022-12-18T15:06:18.527Z,85.66
2022-12-18T15:16:24.018Z,85.62
2022-12-18T15:26:41.126Z,85.42
2022-12-18T15:36:48.606Z,85.50
2022-12-18T15:46:56.141Z,85.31
2022-12-18T15:57:21.251Z,85.25
2022-12-18T16:07:30.713Z,85.16
2022-12-18T16:17:38.897Z,85.19
2022-12-18T16:27:46.119Z,85.48
2022-12-18T16:37:55.046Z,85.32
2022-12-18T16:48:02.235Z,85.30
2022-12-18T16:58:08.664Z,85.25
2022-12-18T17:08:15.835Z,86.01
2022-12-18T17:18:23.324Z,86.08
2022-12-18T17:28:30.800Z,86.37
2022-12-18T17:38:38.491Z,86.63
2022-12-18T17:48:45.712Z,86.27
2022-12-18T17:58:53.743Z,85.43
2022-12-18T18:09:01.036Z,85.00
2022-12-18T18:19:11.560Z,85.12
2022-12-18T18:29:22.016Z,85.19
2022-12-18T18:39:30.212Z,85.24
2022-12-18T18:49:36.755Z,85.62
2022-12-18T18:59:44.264Z,85.56
2022-12-18T19:09:51.432Z,85.46
2022-12-18T19:19:58.766Z,85.67
2022-12-18T19:30:06.564Z,85.65
2022-12-18T19:40:14.134Z,86.23
2022-12-18T19:50:21.583Z,86.16
2022-12-18T20:00:28.844Z,86.29
2022-12-18T20:10:36.012Z,86.50
2022-12-18T20:20:42.099Z,86.50
2022-12-18T20:30:48.124Z,86.21
2022-12-18T20:40:55.970Z,86.41
2022-12-18T20:51:02.123Z,86.36
2022-12-18T21:01:13.725Z,86.48
2022-12-18T21:11:47.717Z,86.82
2022-12-18T21:21:55.795Z,86.90
2022-12-18T21:32:04.140Z,87.05
2022-12-18T21:42:28.766Z,86.91
2022-12-18T21:52:35.736Z,86.50
2022-12-18T22:02:43.212Z,86.29
2022-12-18T22:12:54.744Z,86.24
2022-12-18T22:23:06.129Z,86.40
2022-12-18T22:33:14.019Z,86.39
2022-12-18T22:43:21.270Z,86.11
2022-12-18T22:53:28.832Z,86.66
2022-12-18T23:03:36.433Z,86.44
2022-12-18T23:13:44.299Z,86.23
2022-12-18T23:23:51.842Z,86.38
2022-12-18T23:34:01.101Z,86.30
2022-12-18T23:44:07.476Z,86.51
2022-12-18T23:54:15.060Z,86.61
